Time;durP1;ratioP1;P1;durP2;ratioP2;P2;SDS_P1;SDS_P2;PMS_P1;PMS_P2;Temp;Humidity;BMP_temperature;BMP_pressure;BME280_temperature;BME280_humidity;BME280_pressure;Samples;Min_cycle;Max_cycle;Signal;HPM_P1;HPM_P2
2021/08/06 00:00:25;;;;;;;17.35;3.58;;;;;;;18.45;63.51;98224.69;5103335;28;20040;-89
2021/08/06 00:02:51;;;;;;;11.85;3.67;;;;;;;18.26;63.75;98214.28;5100576;28;20067;-87
2021/08/06 00:05:17;;;;;;;12.80;3.60;;;;;;;18.26;64.18;98218.81;5103449;28;20177;-88
2021/08/06 00:07:43;;;;;;;13.18;3.72;;;;;;;18.14;64.28;98220.50;5104415;28;20757;-87
2021/08/06 00:10:09;;;;;;;11.57;3.38;;;;;;;18.14;64.76;98228.56;5104586;28;20373;-88
2021/08/06 00:12:35;;;;;;;11.20;3.10;;;;;;;18.07;65.25;98221.88;5100911;28;20052;-88
2021/08/06 00:15:04;;;;;;;8.40;3.25;;;;;;;18.11;65.07;98227.91;5102858;28;20492;-88
2021/08/06 00:17:29;;;;;;;;;;;;;;;18.11;65.06;98228.78;5106030;28;20064;-88
2021/08/06 00:19:55;;;;;;;11.73;3.60;;;;;;;18.05;64.75;98210.34;5103055;28;19952;-87
2021/08/06 00:22:21;;;;;;;14.32;3.85;;;;;;;17.93;65.38;98205.78;5097270;28;20465;-89
2021/08/06 00:24:47;;;;;;;8.80;3.40;;;;;;;17.96;65.73;98208.28;5099169;28;20032;-89
2021/08/06 00:27:12;;;;;;;11.88;3.28;;;;;;;17.91;65.87;98200.47;5100852;28;20047;-89
2021/08/06 00:29:38;;;;;;;8.68;3.47;;;;;;;17.83;65.52;98190.25;5103616;28;20051;-89
2021/08/06 00:32:06;;;;;;;10.32;3.55;;;;;;;18.01;65.39;98212.38;5100895;28;20891;-89
2021/08/06 00:34:32;;;;;;;17.80;3.43;;;;;;;17.95;65.89;98209.22;5102768;28;20388;-88
2021/08/06 00:36:58;;;;;;;14.00;3.35;;;;;;;17.95;65.50;98195.78;5102334;28;20115;-88
2021/08/06 00:39:24;;;;;;;13.25;3.80;;;;;;;17.82;65.87;98185.81;5101721;28;20021;-88
2021/08/06 00:41:49;;;;;;;13.18;3.10;;;;;;;17.73;66.07;98183.72;5104679;28;20875;-88
2021/08/06 00:44:15;;;;;;;9.68;3.30;;;;;;;17.81;66.11;98213.66;5098204;28;20068;-89
2021/08/06 00:46:41;;;;;;;12.68;3.92;;;;;;;17.73;65.82;98185.53;5098400;28;20093;-88
2021/08/06 00:49:09;;;;;;;9.40;3.00;;;;;;;17.68;66.24;98185.84;5100976;28;20108;-89
2021/08/06 00:51:34;;;;;;;13.15;3.70;;;;;;;17.79;66.28;98196.75;5100661;28;20122;-89
2021/08/06 00:54:01;;;;;;;20.98;5.00;;;;;;;17.77;66.18;98190.63;5104253;28;20162;-88
2021/08/06 00:56:27;;;;;;;14.73;3.58;;;;;;;17.70;66.50;98175.84;5103212;28;20160;-88
2021/08/06 00:58:54;;;;;;;13.40;3.47;;;;;;;17.72;66.68;98189.19;5102441;28;20073;-89
2021/08/06 01:01:20;;;;;;;13.10;3.80;;;;;;;17.78;66.54;98195.03;5099757;28;20067;-90
2021/08/06 01:03:56;;;;;;;11.85;3.50;;;;;;;17.81;66.39;98200.22;5105193;28;20035;-89
2021/08/06 01:06:39;;;;;;;10.93;3.20;;;;;;;17.79;66.21;98186.00;5106163;28;20067;-89
2021/08/06 01:09:14;;;;;;;13.48;3.35;;;;;;;17.75;66.07;98180.94;5101596;28;20043;-89
2021/08/06 01:11:45;;;;;;;11.48;3.30;;;;;;;17.68;66.58;98179.63;5099903;28;20028;-90
2021/08/06 01:14:15;;;;;;;13.68;3.80;;;;;;;17.71;66.40;98192.84;5101090;28;20050;-90
2021/08/06 01:16:43;;;;;;;10.38;3.30;;;;;;;17.72;66.61;98189.19;5095046;28;20089;-90
2021/08/06 01:19:19;;;;;;;11.18;3.58;;;;;;;17.52;67.41;98172.56;5100700;28;20032;-89
2021/08/06 01:21:50;;;;;;;10.27;3.42;;;;;;;17.49;67.46;98182.63;5102507;28;20127;-89
2021/08/06 01:24:23;;;;;;;10.63;3.35;;;;;;;17.53;67.36;98189.53;5104155;28;20044;-90
2021/08/06 01:26:50;;;;;;;16.35;3.80;;;;;;;17.57;67.40;98196.44;5102221;28;20062;-89
2021/08/06 01:29:17;;;;;;;13.57;3.70;;;;;;;17.54;67.16;98178.66;5100815;28;20040;-89
2021/08/06 01:31:43;;;;;;;11.45;3.60;;;;;;;17.62;66.71;98200.53;5098656;28;20097;-88
2021/08/06 01:34:09;;;;;;;8.90;3.17;;;;;;;17.68;66.58;98198.44;5101329;28;20039;-90
2021/08/06 01:36:35;;;;;;;9.43;3.13;;;;;;;17.59;66.31;98183.78;5100059;28;20428;-89
2021/08/06 01:39:01;;;;;;;11.05;3.28;;;;;;;17.68;66.43;98210.03;5104745;28;20044;-91
2021/08/06 01:41:33;;;;;;;12.43;3.30;;;;;;;17.57;66.62;98191.91;5104737;28;20093;-89
2021/08/06 01:44:07;;;;;;;11.95;3.50;;;;;;;17.47;67.21;98188.09;5100847;28;20044;-89
2021/08/06 01:46:39;;;;;;;11.88;3.63;;;;;;;17.37;67.37;98173.50;5097716;28;20085;-90
2021/08/06 01:49:10;;;;;;;12.82;3.75;;;;;;;17.30;67.69;98172.19;5104812;28;20047;-89
2021/08/06 01:51:38;;;;;;;14.40;3.92;;;;;;;17.20;68.35;98190.75;5103454;28;20512;-89
2021/08/06 01:54:05;;;;;;;12.73;3.78;;;;;;;17.09;69.17;98190.53;5102151;27;20052;-89
2021/08/06 01:56:32;;;;;;;8.70;3.47;;;;;;;17.00;68.87;98167.78;5105178;28;20047;-91
2021/08/06 01:59:00;;;;;;;12.25;4.15;;;;;;;16.98;68.83;98181.34;5105478;28;20032;-90
2021/08/06 02:01:28;;;;;;;10.95;3.47;;;;;;;17.07;69.38;98187.06;5108684;28;20048;-89
2021/08/06 02:03:55;;;;;;;10.95;3.88;;;;;;;17.06;69.18;98193.41;5106474;28;20040;-90
2021/08/06 02:06:21;;;;;;;11.32;3.63;;;;;;;17.00;69.10;98192.84;5105615;28;20032;-90
2021/08/06 02:08:48;;;;;;;10.07;3.33;;;;;;;16.96;69.21;98185.09;5106491;28;20039;-90
2021/08/06 02:11:17;;;;;;;13.57;3.80;;;;;;;17.01;68.94;98194.56;5106724;28;20058;-90
2021/08/06 02:13:43;;;;;;;14.60;3.72;;;;;;;16.97;69.48;98198.41;5103686;28;20097;-90
2021/08/06 02:16:09;;;;;;;18.10;4.80;;;;;;;17.00;69.43;98197.34;5102235;28;20493;-90
2021/08/06 02:18:38;;;;;;;13.88;3.92;;;;;;;16.91;68.99;98171.91;5106517;28;20061;-89
2021/08/06 02:21:24;;;;;;;10.98;3.20;;;;;;;17.01;69.07;98199.09;5105965;28;20047;-90
2021/08/06 02:23:53;;;;;;;12.00;3.90;;;;;;;16.87;69.23;98186.50;5105667;28;20040;-90
2021/08/06 02:26:21;;;;;;;14.65;3.67;;;;;;;16.97;69.45;98195.72;5102454;28;20106;-90
2021/08/06 02:28:50;;;;;;;13.48;3.80;;;;;;;17.00;69.14;98198.22;5103264;28;20063;-89
2021/08/06 02:31:17;;;;;;;11.30;3.70;;;;;;;17.01;69.00;98205.31;5104348;28;20035;-88
2021/08/06 02:33:45;;;;;;;13.10;4.28;;;;;;;16.91;69.20;98198.78;5109755;28;20445;-90
2021/08/06 02:36:11;;;;;;;12.02;3.55;;;;;;;16.85;69.35;98193.81;5106595;28;20040;-90
2021/08/06 02:38:38;;;;;;;13.23;3.85;;;;;;;16.64;69.60;98185.22;5108398;28;20561;-89
2021/08/06 02:41:04;;;;;;;10.43;3.65;;;;;;;16.69;69.73;98184.94;5109064;28;20044;-90
2021/08/06 02:43:30;;;;;;;13.02;3.90;;;;;;;16.73;69.42;98195.38;5105348;28;20139;-89
2021/08/06 02:45:56;;;;;;;12.02;3.75;;;;;;;16.65;70.02;98192.28;5104006;28;20127;-89
2021/08/06 02:48:22;;;;;;;15.43;3.53;;;;;;;16.61;70.16;98194.31;5101755;28;20111;-90
2021/08/06 02:50:49;;;;;;;9.15;3.53;;;;;;;16.57;70.47;98184.72;5106027;28;20032;-89
2021/08/06 02:53:15;;;;;;;10.55;4.10;;;;;;;16.61;70.45;98199.69;5107807;27;20035;-88
2021/08/06 02:55:41;;;;;;;10.98;3.30;;;;;;;16.64;70.32;98199.50;5106827;28;20756;-90
2021/08/06 02:58:07;;;;;;;13.65;3.97;;;;;;;16.66;70.05;98202.09;5107266;28;20040;-89
2021/08/06 03:00:33;;;;;;;13.32;3.85;;;;;;;16.64;70.04;98191.44;5103814;28;20437;-90
2021/08/06 03:02:58;;;;;;;13.57;3.63;;;;;;;16.71;70.10;98201.81;5104531;28;20119;-89
2021/08/06 03:05:24;;;;;;;12.52;3.83;;;;;;;16.68;70.16;98199.31;5105062;28;20052;-90
2021/08/06 03:07:52;;;;;;;12.02;3.88;;;;;;;16.52;70.31;98176.06;5104382;28;20040;-90
2021/08/06 03:10:19;;;;;;;16.30;4.50;;;;;;;16.54;70.30;98184.91;5104482;28;20053;-88
2021/08/06 03:12:45;;;;;;;12.73;3.80;;;;;;;16.54;70.58;98187.56;5102415;28;20027;-89
2021/08/06 03:15:11;;;;;;;9.88;3.92;;;;;;;16.48;70.72;98169.19;5103494;28;20131;-88
2021/08/06 03:17:40;;;;;;;14.93;4.55;;;;;;;16.45;71.17;98184.59;5103663;28;20033;-89
2021/08/06 03:20:07;;;;;;;;;;;;;;;16.48;71.39;98195.13;5106438;28;20051;-90
2021/08/06 03:22:32;;;;;;;11.20;4.05;;;;;;;16.44;71.52;98199.84;5107453;28;19975;-89
2021/08/06 03:25:00;;;;;;;11.95;3.67;;;;;;;16.44;71.53;98199.84;5106562;28;20123;-89
2021/08/06 03:27:25;;;;;;;12.93;4.10;;;;;;;16.41;71.76;98208.06;5104613;28;20147;-89
2021/08/06 03:29:51;;;;;;;12.93;4.07;;;;;;;16.20;72.30;98183.41;5102020;28;20127;-89
2021/08/06 03:32:17;;;;;;;14.75;3.80;;;;;;;16.25;72.46;98188.47;5100892;28;20036;-89
2021/08/06 03:34:43;;;;;;;12.25;3.80;;;;;;;16.36;72.30;98202.97;5102732;28;20036;-89
2021/08/06 03:37:08;;;;;;;11.77;3.92;;;;;;;16.21;72.30;98194.00;5106246;28;20131;-89
2021/08/06 03:39:34;;;;;;;11.75;4.00;;;;;;;16.28;72.28;98201.69;5105128;28;20118;-89
2021/08/06 03:42:01;;;;;;;15.23;4.15;;;;;;;16.15;72.45;98198.88;5100282;28;20127;-89
2021/08/06 03:44:27;;;;;;;13.02;3.75;;;;;;;16.19;72.89;98206.66;5102052;28;20047;-89
2021/08/06 03:46:53;;;;;;;9.70;4.35;;;;;;;16.16;72.43;98203.31;5102229;28;20036;-89
2021/08/06 03:49:18;;;;;;;13.32;4.38;;;;;;;16.20;72.46;98213.75;5103367;28;20036;-90
2021/08/06 03:51:46;;;;;;;11.40;4.13;;;;;;;16.26;72.52;98225.94;5106083;28;20035;-90
2021/08/06 03:54:12;;;;;;;11.43;3.70;;;;;;;16.23;72.62;98224.28;5104547;28;20114;-89
2021/08/06 03:56:38;;;;;;;20.35;4.13;;;;;;;16.22;73.17;98221.69;5103485;28;20127;-90
2021/08/06 03:59:09;;;;;;;12.75;3.58;;;;;;;16.22;73.14;98225.28;5102193;28;20047;-92
2021/08/06 04:01:35;;;;;;;9.82;4.03;;;;;;;16.04;73.42;98202.19;5103023;28;20067;-90
2021/08/06 04:04:01;;;;;;;20.70;4.35;;;;;;;16.14;73.63;98222.16;5108179;28;20035;-89
2021/08/06 04:06:34;;;;;;;9.10;3.53;;;;;;;16.15;73.59;98214.97;5103125;28;20052;-89
2021/08/06 04:09:00;;;;;;;15.15;4.00;;;;;;;16.11;73.75;98211.63;5105405;28;20458;-91
2021/08/06 04:11:26;;;;;;;8.43;3.92;;;;;;;16.17;73.17;98218.44;5104963;28;20122;-89
2021/08/06 04:13:52;;;;;;;10.55;3.55;;;;;;;16.09;73.54;98199.22;5104620;28;20122;-91
2021/08/06 04:16:19;;;;;;;11.25;3.90;;;;;;;16.16;73.29;98211.34;5103916;28;20032;-90
2021/08/06 04:18:45;;;;;;;14.65;4.47;;;;;;;16.19;73.13;98214.69;5110260;28;20032;-90
2021/08/06 04:21:11;;;;;;;13.30;3.58;;;;;;;16.18;73.76;98221.03;5105853;28;20410;-90
2021/08/06 04:23:36;;;;;;;15.18;4.15;;;;;;;16.07;73.70;98207.41;5106338;28;20028;-89
2021/08/06 04:26:02;;;;;;;9.93;3.60;;;;;;;16.18;73.68;98218.34;5103640;28;20040;-89
2021/08/06 04:28:28;;;;;;;8.98;3.63;;;;;;;16.23;73.72;98224.28;5102860;28;20032;-90
2021/08/06 04:30:54;;;;;;;10.90;4.00;;;;;;;16.22;73.63;98227.06;5100545;28;20542;-89
2021/08/06 04:33:33;;;;;;;10.27;3.67;;;;;;;16.23;73.19;98218.06;5101525;28;20127;-89
2021/08/06 04:39:02;;;;;;;14.02;4.28;;;;;;;16.47;72.19;98225.63;5131238;27;20925;-90
2021/08/06 04:41:30;;;;;;;10.60;3.47;;;;;;;16.51;72.21;98225.34;5131006;28;20043;-90
2021/08/06 04:44:00;;;;;;;8.73;3.50;;;;;;;16.59;71.62;98212.34;5131837;28;20039;-89
2021/08/06 04:46:26;;;;;;;11.55;4.03;;;;;;;16.68;71.45;98227.03;5128998;27;20250;-90
2021/08/06 04:48:52;;;;;;;12.75;3.67;;;;;;;16.60;71.74;98221.25;5131691;28;20061;-90
2021/08/06 04:51:35;;;;;;;15.07;4.05;;;;;;;16.58;72.35;98225.84;5134084;27;20035;-90
2021/08/06 04:57:03;;;;;;;9.07;3.35;;;;;;;16.56;72.62;98231.28;5089864;27;20393;-89
2021/08/06 04:59:29;;;;;;;13.65;3.92;;;;;;;16.59;73.00;98216.81;5089677;28;20555;-90
2021/08/06 05:01:55;;;;;;;13.50;3.95;;;;;;;16.64;72.78;98220.09;5087003;28;20032;-90
2021/08/06 05:04:20;;;;;;;16.20;4.53;;;;;;;16.56;72.83;98208.97;5090168;28;20067;-90
2021/08/06 05:06:46;;;;;;;10.32;4.43;;;;;;;16.64;72.75;98223.66;5090919;28;20133;-91
2021/08/06 05:12:14;;;;;;;8.88;4.38;;;;;;;16.82;72.59;98245.00;5130679;27;20366;-91
2021/08/06 05:14:40;;;;;;;12.30;4.90;;;;;;;16.89;72.14;98238.28;5130403;27;20043;-92
2021/08/06 05:17:07;;;;;;;12.77;3.70;;;;;;;17.17;71.30;98226.69;5128037;27;20055;-90
2021/08/06 05:19:33;;;;;;;10.70;3.95;;;;;;;17.28;70.90;98227.84;5132672;28;20057;-90
2021/08/06 05:21:59;;;;;;;11.60;3.72;;;;;;;17.27;70.86;98221.63;5132238;27;20039;-91
2021/08/06 05:24:24;;;;;;;13.25;3.88;;;;;;;17.51;70.06;98223.72;5131928;27;20100;-91
2021/08/06 05:26:50;;;;;;;13.07;4.32;;;;;;;17.91;69.23;98232.75;5131513;27;20031;-90
2021/08/06 05:29:17;;;;;;;10.68;3.83;;;;;;;18.37;66.39;98220.78;5132259;27;20032;-90
2021/08/06 05:31:43;;;;;;;10.27;3.88;;;;;;;18.80;65.54;98237.59;5127499;27;20039;-90
2021/08/06 05:34:14;;;;;;;12.90;4.35;;;;;;;19.15;63.27;98231.56;5129999;28;20031;-89
2021/08/06 05:39:39;;;;;;;9.55;3.65;;;;;;;19.98;60.60;98244.47;5127032;27;20399;-90
2021/08/06 05:42:05;;;;;;;10.35;4.43;;;;;;;20.28;59.44;98248.56;5120177;27;20505;-91
2021/08/06 05:44:33;;;;;;;11.98;4.43;;;;;;;20.26;59.75;98243.28;5119724;28;20046;-89
2021/08/06 05:46:59;;;;;;;15.13;4.43;;;;;;;20.22;58.80;98233.69;5119796;27;20031;-89
2021/08/06 05:49:28;;;;;;;11.73;4.30;;;;;;;20.36;58.60;98240.75;5120018;28;20047;-90
2021/08/06 05:51:53;;;;;;;;;;;;;;;20.62;58.16;98256.84;5122396;27;20039;-89
2021/08/06 05:54:19;;;;;;;9.90;4.10;;;;;;;20.63;57.95;98235.13;5120255;28;19942;-90
2021/08/06 05:56:46;;;;;;;10.10;3.80;;;;;;;20.82;57.43;98239.09;5120378;27;20092;-90
2021/08/06 05:59:14;;;;;;;12.15;3.83;;;;;;;20.99;56.94;98254.88;5120582;27;20123;-88
2021/08/06 06:01:39;;;;;;;12.00;4.35;;;;;;;21.04;56.34;98251.81;5119356;28;20135;-88
2021/08/06 06:04:07;;;;;;;13.98;3.63;;;;;;;20.75;57.59;98251.34;5118711;27;20500;-92
2021/08/06 06:09:32;;;;;;;16.05;4.38;;;;;;;21.09;56.36;98263.97;5131717;27;20384;-89
2021/08/06 06:11:58;;;;;;;11.15;3.63;;;;;;;21.18;56.64;98270.50;5130573;28;20054;-89
2021/08/06 06:14:24;;;;;;;14.43;4.00;;;;;;;21.25;56.45;98271.75;5130307;28;20043;-90
2021/08/06 06:16:49;;;;;;;15.27;4.05;;;;;;;21.53;56.08;98270.47;5127244;27;20074;-89
2021/08/06 06:19:16;;;;;;;11.57;4.43;;;;;;;21.54;55.18;98269.47;5129982;28;20040;-90
2021/08/06 06:21:41;;;;;;;17.52;4.18;;;;;;;21.20;56.60;98267.69;5131006;27;20588;-90
2021/08/06 06:24:07;;;;;;;10.68;3.90;;;;;;;21.29;56.68;98262.41;5130170;28;20142;-89
2021/08/06 06:26:34;;;;;;;14.00;4.60;;;;;;;21.46;56.24;98244.88;5131491;27;20043;-90
2021/08/06 06:29:02;;;;;;;9.15;3.85;;;;;;;21.78;55.78;98259.50;5127967;27;20390;-89
2021/08/06 06:31:31;;;;;;;13.10;4.10;;;;;;;21.68;56.06;98272.91;5126907;27;20046;-89
2021/08/06 06:34:00;;;;;;;11.98;3.90;;;;;;;21.59;56.18;98269.09;5128127;27;20062;-88
2021/08/06 06:36:29;;;;;;;12.77;4.57;;;;;;;21.81;55.61;98261.94;5129589;27;20043;-90
2021/08/06 06:38:54;;;;;;;21.83;5.17;;;;;;;21.97;55.17;98256.13;5128584;28;20089;-88
2021/08/06 06:41:20;;;;;;;13.05;4.57;;;;;;;22.06;54.95;98248.13;5131604;27;20047;-90
2021/08/06 06:43:47;;;;;;;13.82;4.10;;;;;;;22.28;53.87;98252.66;5129395;28;20088;-89
2021/08/06 06:46:13;;;;;;;20.55;4.90;;;;;;;22.39;53.75;98249.03;5126550;27;20051;-89
2021/08/06 06:48:39;;;;;;;14.85;4.22;;;;;;;22.57;53.48;98254.75;5128629;28;20038;-90
2021/08/06 06:51:05;;;;;;;16.63;4.63;;;;;;;22.14;54.62;98239.34;5130982;27;20042;-90
2021/08/06 06:53:31;;;;;;;12.35;4.15;;;;;;;22.35;54.04;98231.31;5129543;27;20031;-91
2021/08/06 06:55:57;;;;;;;18.50;5.15;;;;;;;22.67;53.58;98247.56;5129218;28;20378;-89
2021/08/06 06:58:23;;;;;;;8.98;3.90;;;;;;;22.87;52.82;98253.13;5128105;27;20830;-90
2021/08/06 07:00:50;;;;;;;9.32;3.95;;;;;;;22.86;52.68;98259.56;5126076;28;20043;-89
2021/08/06 07:03:16;;;;;;;15.20;4.72;;;;;;;22.91;52.48;98250.03;5129278;27;20039;-88
2021/08/06 07:05:42;;;;;;;14.85;4.38;;;;;;;22.97;51.83;98227.81;5129278;28;20405;-89
2021/08/06 07:08:07;;;;;;;14.45;3.67;;;;;;;23.10;51.88;98240.34;5128368;27;20047;-88
2021/08/06 07:10:33;;;;;;;11.18;3.92;;;;;;;23.25;51.47;98233.56;5128553;28;20430;-89
2021/08/06 07:12:59;;;;;;;17.17;4.63;;;;;;;23.42;50.78;98240.25;5128996;27;20038;-89
2021/08/06 07:15:25;;;;;;;16.58;4.28;;;;;;;23.42;50.58;98217.66;5125619;28;20073;-90
2021/08/06 07:17:52;;;;;;;12.27;3.88;;;;;;;23.74;50.41;98237.34;5129039;27;20053;-89
2021/08/06 07:20:20;;;;;;;12.38;4.07;;;;;;;23.92;49.80;98237.59;5119172;27;20039;-90
2021/08/06 07:22:46;;;;;;;14.55;3.95;;;;;;;24.07;48.99;98239.91;5118231;27;20066;-90
2021/08/06 07:25:15;;;;;;;12.63;4.35;;;;;;;24.13;49.22;98229.31;5118423;27;20043;-91
2021/08/06 07:27:41;;;;;;;;;;;;;;;24.28;48.50;98240.66;5117995;27;20036;-90
2021/08/06 07:30:09;;;;;;;11.90;3.90;;;;;;;23.75;49.66;98235.50;5113265;27;19920;-90
2021/08/06 07:32:35;;;;;;;15.73;4.90;;;;;;;23.51;50.78;98239.41;5116993;27;20462;-90
2021/08/06 07:35:03;;;;;;;9.98;3.90;;;;;;;23.23;51.84;98238.28;5114392;28;20031;-90
2021/08/06 07:37:29;;;;;;;13.18;4.30;;;;;;;23.53;51.10;98245.56;5114500;28;20044;-90
2021/08/06 07:39:55;;;;;;;12.20;4.13;;;;;;;23.76;50.20;98231.81;5114797;28;20039;-90
2021/08/06 07:42:21;;;;;;;13.10;3.95;;;;;;;24.21;49.50;98236.78;5114842;28;20063;-89
2021/08/06 07:44:47;;;;;;;11.98;3.92;;;;;;;24.33;49.54;98246.53;5114765;28;20035;-90
2021/08/06 07:47:13;;;;;;;12.50;3.55;;;;;;;23.75;50.32;98235.50;5115819;28;20963;-90
2021/08/06 07:49:41;;;;;;;13.30;3.70;;;;;;;23.83;50.39;98222.09;5116427;28;20131;-90
2021/08/06 07:52:09;;;;;;;11.88;3.90;;;;;;;23.92;50.14;98236.72;5116937;27;20031;-89
2021/08/06 07:54:35;;;;;;;15.40;4.53;;;;;;;23.50;50.87;98253.97;5115757;28;20512;-89
2021/08/06 07:57:00;;;;;;;10.80;3.72;;;;;;;23.38;51.21;98234.22;5118327;27;20039;-90
2021/08/06 07:59:26;;;;;;;13.05;3.83;;;;;;;23.55;51.04;98231.84;5114808;28;20032;-89
2021/08/06 08:01:54;;;;;;;17.02;4.03;;;;;;;23.95;50.13;98244.59;5111302;28;20046;-90
2021/08/06 08:04:19;;;;;;;9.02;4.07;;;;;;;24.15;49.07;98242.78;5113731;28;20070;-90
2021/08/06 08:06:46;;;;;;;15.65;3.90;;;;;;;24.60;48.74;98237.69;5112918;28;20546;-91
2021/08/06 08:09:13;;;;;;;12.15;4.05;;;;;;;24.94;47.62;98249.97;5113553;28;20066;-89
2021/08/06 08:11:39;;;;;;;9.73;3.97;;;;;;;25.18;46.91;98238.63;5115204;28;20127;-90
2021/08/06 08:14:08;;;;;;;14.93;3.75;;;;;;;25.43;46.05;98239.88;5113423;28;20039;-90
2021/08/06 08:16:34;;;;;;;10.20;3.42;;;;;;;25.57;45.98;98241.28;5113335;27;20084;-90
2021/08/06 08:19:00;;;;;;;9.15;3.42;;;;;;;25.83;45.30;98245.00;5114521;27;20040;-90
2021/08/06 08:21:26;;;;;;;11.55;3.85;;;;;;;26.03;44.43;98223.16;5115212;28;20048;-90
2021/08/06 08:23:52;;;;;;;9.73;4.45;;;;;;;26.31;43.21;98245.75;5108477;28;20494;-90
2021/08/06 08:26:19;;;;;;;9.70;3.97;;;;;;;26.35;43.44;98247.19;5113612;27;20118;-90
2021/08/06 08:28:45;;;;;;;9.70;3.17;;;;;;;26.10;44.46;98247.91;5112848;28;20107;-90
2021/08/06 08:31:11;;;;;;;11.85;3.78;;;;;;;26.33;44.36;98235.56;5109806;27;20039;-92
2021/08/06 08:33:37;;;;;;;10.13;3.45;;;;;;;26.22;42.94;98236.66;5114943;27;20040;-89
2021/08/06 08:36:04;;;;;;;16.80;3.78;;;;;;;26.59;42.34;98243.88;5114338;27;20118;-90
2021/08/06 08:38:30;;;;;;;8.63;3.65;;;;;;;26.10;42.94;98245.19;5113102;28;20122;-90
2021/08/06 08:40:57;;;;;;;11.85;3.67;;;;;;;26.13;42.69;98239.41;5113293;27;20576;-90
2021/08/06 08:43:25;;;;;;;9.82;3.88;;;;;;;26.41;42.04;98235.66;5112735;28;20070;-91
2021/08/06 08:45:54;;;;;;;8.38;4.25;;;;;;;26.18;42.77;98220.75;5109414;27;20044;-91
2021/08/06 08:48:22;;;;;;;9.40;3.85;;;;;;;26.66;41.97;98226.88;5112519;28;20036;-88
2021/08/06 08:50:51;;;;;;;9.77;3.80;;;;;;;26.68;41.49;98225.72;5113079;27;20035;-89
2021/08/06 08:53:17;;;;;;;9.70;3.80;;;;;;;26.53;41.11;98225.38;5112375;28;20039;-89
2021/08/06 08:55:42;;;;;;;7.88;3.70;;;;;;;26.77;39.80;98205.66;5112498;28;20043;-89
2021/08/06 08:58:10;;;;;;;8.63;3.83;;;;;;;26.95;39.95;98204.78;5114022;27;20062;-89
2021/08/06 09:00:39;;;;;;;11.35;3.58;;;;;;;26.63;39.54;98219.84;5109367;27;20051;-91
2021/08/06 09:03:04;;;;;;;12.90;4.30;;;;;;;26.55;40.62;98209.72;5112251;28;20081;-91
2021/08/06 09:05:30;;;;;;;8.00;3.42;;;;;;;26.36;41.18;98185.31;5112124;28;20035;-90
2021/08/06 09:07:58;;;;;;;15.82;4.03;;;;;;;26.84;40.52;98206.72;5114113;27;20042;-90
2021/08/06 09:10:27;;;;;;;11.40;4.32;;;;;;;27.11;38.91;98179.44;5112427;28;20105;-89
2021/08/06 09:12:56;;;;;;;10.32;4.10;;;;;;;27.24;39.04;98190.84;5112547;28;20508;-89
2021/08/06 09:15:44;;;;;;;9.60;4.22;;;;;;;27.50;38.55;98214.53;5109709;28;20097;-90
2021/08/06 09:18:29;;;;;;;8.43;3.88;;;;;;;27.14;38.81;98210.03;5111327;28;20028;-91
2021/08/06 09:20:58;;;;;;;12.45;4.68;;;;;;;27.25;38.83;98206.19;5115920;27;20032;-91
2021/08/06 09:23:44;;;;;;;8.65;3.55;;;;;;;27.73;37.32;98209.34;5114145;27;20047;-93
2021/08/06 09:26:33;;;;;;;8.70;3.55;;;;;;;27.84;36.74;98207.16;5111887;28;20046;-91
2021/08/06 09:29:04;;;;;;;11.13;3.85;;;;;;;27.91;36.59;98207.41;5122373;27;20040;-92
2021/08/06 09:31:34;;;;;;;7.28;3.15;;;;;;;27.98;36.21;98205.72;5112668;28;20066;-92
2021/08/06 09:34:23;;;;;;;8.50;3.83;;;;;;;28.36;35.93;98200.69;5114749;28;20032;-92
2021/08/06 09:40:18;;;;;;;8.82;3.58;;;;;;;27.89;36.16;98203.13;5131516;27;20374;-90
2021/08/06 09:42:53;;;;;;;8.82;3.42;;;;;;;28.26;36.33;98183.59;5133567;27;20051;-90
2021/08/06 09:45:21;;;;;;;9.25;3.90;;;;;;;28.59;34.92;98191.84;5130149;28;20489;-91
2021/08/06 09:47:55;;;;;;;;;;;;;;;28.22;35.27;98185.78;5135587;27;20092;-93
2021/08/06 09:50:21;;;;;;;8.38;3.30;;;;;;;27.46;36.93;98170.31;5131841;28;20292;-91
2021/08/06 09:52:48;;;;;;;7.75;3.42;;;;;;;27.82;35.83;98191.97;5132411;27;20040;-94
2021/08/06 09:55:21;;;;;;;7.95;3.67;;;;;;;27.32;37.15;98181.84;5132557;27;20484;-92
2021/08/06 09:57:47;;;;;;;6.35;3.55;;;;;;;27.32;37.45;98182.69;5132094;28;20088;-94
2021/08/06 10:00:15;;;;;;;7.60;3.20;;;;;;;27.93;36.29;98172.56;5132189;27;20043;-92
2021/08/06 10:02:42;;;;;;;7.78;3.60;;;;;;;27.89;35.55;98160.28;5132835;28;20031;-95
2021/08/06 10:05:10;;;;;;;11.07;3.67;;;;;;;27.54;36.63;98170.38;5134639;27;20047;-93
2021/08/06 10:07:41;;;;;;;11.38;3.83;;;;;;;27.38;36.60;98160.19;5134872;28;20051;-94
2021/08/06 10:10:13;;;;;;;14.15;3.55;;;;;;;27.35;36.65;98157.81;5134500;27;20050;-93
2021/08/06 10:12:40;;;;;;;9.10;3.50;;;;;;;27.31;37.73;98145.50;5132904;28;20051;-92
2021/08/06 10:15:10;;;;;;;8.27;3.80;;;;;;;27.77;36.39;98158.81;5134363;27;20047;-93
2021/08/06 10:17:36;;;;;;;10.00;3.50;;;;;;;28.04;35.79;98169.53;5134027;27;20508;-94
2021/08/06 10:20:03;;;;;;;9.25;3.25;;;;;;;28.28;34.90;98154.19;5133541;27;20034;-93
2021/08/06 10:22:29;;;;;;;10.98;3.60;;;;;;;28.03;35.58;98165.06;5132378;27;20035;-93
2021/08/06 10:24:58;;;;;;;7.90;3.70;;;;;;;28.60;34.53;98179.88;5133751;28;20497;-94
2021/08/06 10:27:29;;;;;;;7.80;3.60;;;;;;;28.30;34.72;98154.91;5132345;28;20045;-93
2021/08/06 10:29:59;;;;;;;7.03;3.53;;;;;;;29.10;33.19;98161.56;5129020;28;20126;-94
2021/08/06 10:32:26;;;;;;;6.57;3.33;;;;;;;29.15;33.39;98140.84;5132544;28;20059;-92
2021/08/06 10:35:17;;;;;;;8.77;3.40;;;;;;;28.85;33.21;98159.69;5131737;28;20047;-91
2021/08/06 10:37:54;;;;;;;9.57;3.65;;;;;;;28.35;34.67;98154.38;5132403;28;20043;-95
2021/08/06 10:41:06;;;;;;;7.90;3.63;;;;;;;29.01;34.35;98172.50;5133391;28;20501;-92
2021/08/06 10:44:03;;;;;;;7.43;3.40;;;;;;;29.02;34.36;98165.16;5132862;28;20034;-93
2021/08/06 10:46:52;;;;;;;8.18;3.50;;;;;;;29.65;33.28;98164.31;5129685;28;20047;-95
2021/08/06 10:49:19;;;;;;;11.55;4.05;;;;;;;30.06;32.51;98160.53;5125570;28;20286;-94
2021/08/06 10:51:47;;;;;;;9.15;3.70;;;;;;;29.52;33.91;98157.69;5118972;28;20042;-93
2021/08/06 10:54:33;;;;;;;8.25;3.45;;;;;;;29.81;32.47;98168.88;5109603;28;20036;-94
2021/08/06 10:57:36;;;;;;;10.02;3.40;;;;;;;29.99;32.24;98146.66;5117977;28;20047;-93
2021/08/06 11:00:03;;;;;;;8.77;3.53;;;;;;;30.21;31.83;98141.41;5112372;28;20497;-92
2021/08/06 11:02:44;;;;;;;6.47;3.25;;;;;;;30.17;32.49;98156.53;5115759;28;20036;-94
2021/08/06 11:05:39;;;;;;;9.23;3.60;;;;;;;30.42;31.31;98143.50;5117758;28;20032;-94
2021/08/06 11:08:54;;;;;;;8.35;3.58;;;;;;;29.48;33.32;98141.59;5118117;28;20035;-92
2021/08/06 11:11:56;;;;;;;8.60;3.50;;;;;;;29.61;33.70;98135.56;5115871;28;20440;-92
2021/08/06 11:14:57;;;;;;;8.32;3.10;;;;;;;29.62;32.68;98126.28;5117336;28;20035;-93
2021/08/06 11:17:34;;;;;;;9.90;3.40;;;;;;;29.58;32.90;98121.34;5034507;28;20586;-91
2021/08/06 11:20:10;;;;;;;10.70;3.78;;;;;;;29.49;32.46;98104.09;5033786;28;20539;-94
2021/08/06 11:22:38;;;;;;;8.52;3.90;;;;;;;29.30;33.40;98108.13;5033458;28;20088;-91
2021/08/06 11:25:06;;;;;;;7.00;3.25;;;;;;;29.44;32.11;98110.09;5036633;28;20096;-92
2021/08/06 11:27:37;;;;;;;8.48;3.10;;;;;;;29.39;33.44;98117.16;5034313;28;20045;-93
2021/08/06 11:30:09;;;;;;;7.28;3.00;;;;;;;29.13;33.28;98101.84;5037938;28;20132;-93
2021/08/06 11:32:50;;;;;;;7.90;3.25;;;;;;;29.03;33.32;98120.31;5036811;28;20041;-93
2021/08/06 11:35:20;;;;;;;6.82;3.20;;;;;;;28.93;33.49;98103.22;5035020;28;20076;-92
2021/08/06 11:37:52;;;;;;;6.57;3.35;;;;;;;29.10;33.86;98126.81;5035151;28;20045;-89
2021/08/06 11:40:19;;;;;;;9.18;3.38;;;;;;;29.06;33.66;98100.78;5037387;28;20053;-93
2021/08/06 11:42:46;;;;;;;8.43;3.45;;;;;;;29.00;34.10;98088.69;5026913;28;20017;-91
2021/08/06 11:45:13;;;;;;;10.27;3.47;;;;;;;29.43;33.41;98088.38;5032068;28;20034;-92
2021/08/06 11:47:42;;;;;;;12.05;3.55;;;;;;;29.52;32.61;98084.56;5055706;28;20043;-91
2021/08/06 11:50:11;;;;;;;10.10;3.92;;;;;;;29.20;33.68;98097.38;5111410;28;20051;-92
2021/08/06 11:52:39;;;;;;;;;;;;;;;29.47;32.44;98092.47;5111633;28;20036;-92
2021/08/06 11:55:06;;;;;;;;;;;;;;;29.63;32.32;98089.66;5119647;28;19920;-94